createdAt,value
2017-10-16T00:03:31.076Z,9.80
2017-10-16T00:08:34.260Z,9.70
2017-10-16T00:13:37.452Z,9.90
2017-10-16T00:18:41.473Z,9.80
2017-10-16T00:23:45.537Z,9.80
2017-10-16T00:28:48.788Z,9.80
2017-10-16T00:33:53.107Z,9.70
2017-10-16T00:38:56.316Z,9.70
2017-10-16T00:43:59.511Z,9.70
2017-10-16T00:49:02.739Z,9.50
2017-10-16T00:54:06.218Z,9.30
2017-10-16T00:59:09.546Z,9.60
2017-10-16T01:04:12.739Z,9.70
2017-10-16T01:09:15.910Z,9.50
2017-10-16T01:14:19.107Z,9.00
2017-10-16T01:19:22.263Z,9.00
2017-10-16T01:24:25.489Z,9.00
2017-10-16T01:29:28.652Z,9.30
2017-10-16T01:34:31.834Z,9.20
2017-10-16T01:39:35.025Z,9.20
2017-10-16T01:44:38.978Z,8.90
2017-10-16T01:49:42.134Z,8.90
2017-10-16T01:54:45.329Z,9.00
2017-10-16T01:59:50.550Z,9.00
2017-10-16T02:04:54.578Z,9.10
2017-10-16T02:09:58.078Z,9.20
2017-10-16T02:15:01.266Z,8.80
2017-10-16T02:20:05.326Z,8.80
2017-10-16T02:25:08.782Z,8.70
2017-10-16T02:30:11.978Z,9.00
2017-10-16T02:35:15.166Z,8.70
2017-10-16T02:40:21.307Z,8.00
2017-10-16T02:45:24.750Z,8.00
2017-10-16T02:50:28.084Z,8.00
2017-10-16T02:55:31.267Z,7.90
2017-10-16T03:00:34.488Z,7.90
2017-10-16T03:05:37.681Z,7.90
2017-10-16T03:10:40.891Z,8.10
2017-10-16T03:15:44.615Z,8.20
2017-10-16T03:20:47.886Z,8.40
2017-10-16T03:25:51.146Z,8.60
2017-10-16T03:30:54.339Z,8.70
2017-10-16T03:35:57.529Z,8.80
2017-10-16T03:41:00.709Z,8.90
2017-10-16T03:46:03.890Z,9.00
2017-10-16T03:51:07.957Z,9.10
2017-10-16T03:56:11.203Z,9.10
2017-10-16T04:01:14.404Z,9.00
2017-10-16T04:06:17.804Z,9.10
2017-10-16T04:11:21.205Z,9.10
2017-10-16T04:16:24.401Z,9.00
2017-10-16T04:21:27.850Z,9.10
2017-10-16T04:26:31.138Z,9.10
2017-10-16T04:31:34.447Z,8.90
2017-10-16T04:36:37.681Z,9.00
2017-10-16T04:41:40.890Z,8.80
2017-10-16T04:46:44.093Z,8.70
2017-10-16T04:51:47.345Z,8.70
2017-10-16T04:56:50.695Z,8.80
2017-10-16T05:01:53.950Z,8.90
2017-10-16T05:06:57.957Z,8.90
2017-10-16T05:12:02.074Z,8.90
2017-10-16T05:17:05.374Z,8.80
2017-10-16T05:22:08.605Z,8.90
2017-10-16T05:27:12.569Z,9.00
2017-10-16T05:32:15.760Z,8.90
2017-10-16T05:37:19.710Z,9.10
2017-10-16T05:42:22.893Z,9.00
2017-10-16T05:47:26.124Z,9.10
2017-10-16T05:52:29.313Z,9.10
2017-10-16T05:57:32.485Z,9.20
2017-10-16T06:02:36.423Z,9.20
2017-10-16T06:07:40.357Z,9.20
2017-10-16T06:12:43.573Z,9.30
2017-10-16T06:17:46.881Z,9.30
2017-10-16T06:22:50.146Z,9.20
2017-10-16T06:27:53.326Z,9.20
2017-10-16T06:32:56.569Z,9.20
2017-10-16T06:38:00.530Z,9.10
2017-10-16T06:43:03.827Z,9.20
2017-10-16T06:48:07.762Z,9.30
2017-10-16T06:53:11.063Z,9.30
2017-10-16T06:58:14.261Z,9.50
2017-10-16T07:03:17.738Z,9.50
2017-10-16T07:08:20.926Z,9.80
2017-10-16T07:13:24.113Z,9.60
2017-10-16T07:18:27.275Z,9.80
2017-10-16T07:23:31.276Z,9.90
2017-10-16T07:28:34.491Z,9.80
2017-10-16T07:33:37.713Z,10.10
2017-10-16T07:38:41.076Z,10.10
2017-10-16T07:43:44.425Z,10.30
2017-10-16T07:48:47.602Z,10.50
2017-10-16T07:53:51.920Z,10.60
2017-10-16T07:58:55.300Z,10.70
2017-10-16T08:03:58.548Z,10.70
2017-10-16T08:09:01.760Z,10.70
2017-10-16T08:14:05.045Z,10.80
2017-10-16T08:19:08.354Z,10.90
2017-10-16T08:24:11.549Z,11.40
2017-10-16T08:29:14.734Z,11.30
2017-10-16T08:34:18.711Z,11.40
2017-10-16T08:39:21.906Z,11.40
2017-10-16T08:44:25.099Z,11.60
2017-10-16T08:49:28.361Z,12.00
2017-10-16T08:54:31.552Z,11.90
2017-10-16T08:59:34.774Z,12.30
2017-10-16T09:04:37.978Z,12.60
2017-10-16T09:09:41.161Z,13.20
2017-10-16T09:14:44.519Z,13.20
2017-10-16T09:19:48.463Z,12.80
2017-10-16T09:24:51.646Z,12.80
2017-10-16T09:29:55.910Z,13.30
2017-10-16T09:34:59.116Z,13.30
2017-10-16T09:40:02.318Z,13.90
2017-10-16T09:45:05.502Z,14.20
2017-10-16T09:50:08.694Z,14.30
2017-10-16T09:55:12.654Z,14.70
2017-10-16T10:00:15.825Z,14.70
2017-10-16T10:05:19.791Z,15.00
2017-10-16T10:10:22.990Z,15.00
2017-10-16T10:15:26.177Z,15.10
2017-10-16T10:20:29.359Z,15.20
2017-10-16T10:25:32.557Z,15.40
2017-10-16T10:30:35.800Z,16.00
2017-10-16T10:35:39.811Z,16.20
2017-10-16T10:40:44.417Z,16.20
2017-10-16T10:45:47.646Z,16.20
2017-10-16T10:50:51.016Z,16.50
2017-10-16T10:55:54.342Z,16.70
2017-10-16T11:00:57.553Z,16.90
2017-10-16T11:06:00.953Z,17.00
2017-10-16T11:11:04.138Z,17.00
2017-10-16T11:16:07.334Z,17.20
2017-10-16T11:21:10.559Z,17.50
2017-10-16T11:26:13.757Z,17.50
2017-10-16T11:31:16.966Z,17.60
2017-10-16T11:36:20.386Z,17.60
2017-10-16T11:41:23.578Z,18.10
2017-10-16T11:46:26.785Z,18.30
2017-10-16T11:51:29.983Z,18.30
2017-10-16T11:56:33.246Z,18.20
2017-10-16T12:01:36.475Z,18.20
2017-10-16T12:06:40.425Z,18.20
2017-10-16T12:11:43.920Z,18.20
2017-10-16T12:16:48.181Z,18.60
2017-10-16T12:21:51.361Z,18.50
2017-10-16T12:26:55.328Z,18.90
2017-10-16T12:31:58.527Z,18.90
2017-10-16T12:37:01.747Z,18.80
2017-10-16T12:42:04.924Z,18.80
2017-10-16T12:47:08.179Z,19.00
2017-10-16T12:52:11.371Z,19.20
2017-10-16T12:57:14.554Z,19.30
2017-10-16T13:02:17.793Z,19.40
2017-10-16T13:07:22.599Z,19.40
2017-10-16T13:12:25.839Z,19.30
2017-10-16T13:17:29.026Z,19.70
2017-10-16T13:22:32.253Z,19.50
2017-10-16T13:27:35.464Z,19.50
2017-10-16T13:32:38.640Z,19.40
2017-10-16T13:37:41.823Z,19.30
2017-10-16T13:42:45.772Z,19.40
2017-10-16T13:47:49.031Z,19.30
2017-10-16T13:52:52.233Z,19.50
2017-10-16T13:57:55.423Z,19.50
2017-10-16T14:02:58.630Z,19.60
2017-10-16T14:08:01.859Z,19.60
2017-10-16T14:13:05.017Z,19.70
2017-10-16T14:18:08.200Z,19.60
2017-10-16T14:23:12.988Z,19.60
2017-10-16T14:28:16.189Z,19.60
2017-10-16T14:33:19.410Z,19.60
2017-10-16T14:38:22.582Z,19.60
2017-10-16T14:43:25.769Z,19.60
2017-10-16T14:48:28.953Z,19.60
2017-10-16T14:53:32.148Z,19.50
2017-10-16T14:58:36.573Z,19.40
2017-10-16T15:03:39.749Z,19.40
2017-10-16T15:08:43.201Z,19.40
2017-10-16T15:13:46.414Z,19.30
2017-10-16T15:18:49.672Z,19.30
2017-10-16T15:23:53.611Z,19.30
2017-10-16T15:28:56.794Z,19.20
2017-10-16T15:33:59.970Z,19.20
2017-10-16T15:39:03.922Z,19.00
2017-10-16T15:44:07.112Z,19.00
2017-10-16T15:49:11.065Z,18.80
2017-10-16T15:54:14.245Z,18.80
2017-10-16T15:59:18.183Z,18.40
2017-10-16T16:04:21.373Z,18.40
2017-10-16T16:09:25.345Z,18.10
2017-10-16T16:14:28.547Z,18.00
2017-10-16T16:19:31.723Z,17.80
2017-10-16T16:24:34.906Z,17.60
2017-10-16T16:29:38.842Z,17.20
2017-10-16T16:34:43.305Z,17.00
2017-10-16T16:39:48.043Z,17.00
2017-10-16T16:44:51.284Z,17.10
2017-10-16T16:49:54.497Z,17.00
2017-10-16T16:54:57.673Z,16.70
2017-10-16T17:00:00.898Z,16.40
2017-10-16T17:05:04.113Z,16.40
2017-10-16T17:10:07.331Z,16.30
2017-10-16T17:15:10.578Z,16.10
2017-10-16T17:20:14.617Z,15.80
2017-10-16T17:25:17.818Z,15.80
2017-10-16T17:30:20.999Z,15.60
2017-10-16T17:35:25.002Z,15.30
2017-10-16T17:40:28.191Z,15.30
2017-10-16T17:45:31.518Z,15.00
2017-10-16T17:50:34.871Z,14.80
2017-10-16T17:55:38.082Z,15.00
2017-10-16T18:00:41.327Z,14.80
2017-10-16T18:05:44.548Z,14.80
2017-10-16T18:10:47.736Z,14.80
2017-10-16T18:15:50.957Z,15.00
2017-10-16T18:20:54.146Z,14.80
2017-10-16T18:25:57.401Z,14.70
2017-10-16T18:31:01.377Z,14.60
2017-10-16T18:36:04.680Z,14.60
2017-10-16T18:41:07.870Z,14.30
2017-10-16T18:46:11.109Z,14.30
2017-10-16T18:51:14.313Z,14.20
2017-10-16T18:56:17.542Z,14.00
2017-10-16T19:01:20.737Z,13.90
2017-10-16T19:06:23.926Z,13.70
2017-10-16T19:11:27.262Z,13.60
2017-10-16T19:16:30.464Z,13.60
2017-10-16T19:21:33.646Z,13.50
2017-10-16T19:26:36.841Z,13.20
2017-10-16T19:31:40.058Z,13.10
2017-10-16T19:36:43.310Z,13.00
2017-10-16T19:41:46.687Z,12.70
2017-10-16T19:46:49.913Z,12.70
2017-10-16T19:51:53.089Z,12.60
2017-10-16T19:56:56.306Z,12.60
2017-10-16T20:01:59.526Z,12.50
2017-10-16T20:07:02.751Z,12.60
2017-10-16T20:12:05.963Z,12.50
2017-10-16T20:17:09.421Z,12.30
2017-10-16T20:22:12.653Z,12.20
2017-10-16T20:27:15.850Z,12.20
2017-10-16T20:32:19.030Z,12.20
2017-10-16T20:37:22.213Z,12.20
2017-10-16T20:42:26.180Z,11.80
2017-10-16T20:47:29.493Z,11.70
2017-10-16T20:52:32.720Z,11.80
2017-10-16T20:57:36.027Z,12.00
2017-10-16T21:02:39.276Z,11.90
2017-10-16T21:07:43.264Z,11.80
2017-10-16T21:12:46.460Z,11.80
2017-10-16T21:17:49.637Z,11.70
2017-10-16T21:22:52.848Z,11.60
2017-10-16T21:27:56.047Z,11.60
2017-10-16T21:32:59.222Z,11.50
2017-10-16T21:38:03.218Z,11.60
2017-10-16T21:43:06.398Z,11.50
2017-10-16T21:48:09.606Z,11.60
2017-10-16T21:53:12.867Z,11.50
2017-10-16T21:58:18.029Z,11.50
2017-10-16T22:03:22.013Z,11.10
2017-10-16T22:08:25.437Z,11.10
2017-10-16T22:13:28.620Z,11.00
2017-10-16T22:18:32.738Z,10.90
2017-10-16T22:23:35.906Z,10.90
2017-10-16T22:28:39.863Z,11.10
2017-10-16T22:33:43.158Z,11.10
2017-10-16T22:38:46.348Z,11.10
2017-10-16T22:43:49.525Z,11.00
2017-10-16T22:48:53.942Z,11.00
2017-10-16T23:10:09.792Z,10.80
2017-10-16T23:15:13.886Z,10.60
2017-10-16T23:20:17.133Z,10.60
2017-10-16T23:25:20.335Z,10.50
2017-10-16T23:30:23.483Z,10.50
2017-10-16T23:35:26.678Z,10.50
2017-10-16T23:40:30.696Z,10.30
2017-10-16T23:45:34.041Z,10.30
2017-10-16T23:50:37.362Z,10.30
2017-10-16T23:55:40.589Z,10.30
